sensor_id;sensor_type;location;lat;lon;timestamp;pressure;altitude;pressure_sealevel;temperature;humidity
47636;BME280;33364;50.766;15.338;2023-08-20T00:01:33;95603.78;;;18.65;78.15
47636;BME280;33364;50.766;15.338;2023-08-20T00:03:59;95601.25;;;18.69;77.84
47636;BME280;33364;50.766;15.338;2023-08-20T00:06:25;95602.09;;;18.61;78.05
47636;BME280;33364;50.766;15.338;2023-08-20T00:08:52;95609.16;;;18.56;78.50
47636;BME280;33364;50.766;15.338;2023-08-20T00:11:17;95599.38;;;18.52;78.96
47636;BME280;33364;50.766;15.338;2023-08-20T00:13:44;95606.16;;;18.58;78.32
47636;BME280;33364;50.766;15.338;2023-08-20T00:16:09;95614.81;;;18.46;78.69
47636;BME280;33364;50.766;15.338;2023-08-20T00:18:36;95607.63;;;18.38;79.18
47636;BME280;33364;50.766;15.338;2023-08-20T00:21:02;95611.25;;;18.34;78.91
47636;BME280;33364;50.766;15.338;2023-08-20T00:23:28;95610.31;;;18.21;79.97
47636;BME280;33364;50.766;15.338;2023-08-20T00:25:54;95599.31;;;18.14;80.11
47636;BME280;33364;50.766;15.338;2023-08-20T00:28:21;95605.94;;;18.08;80.57
47636;BME280;33364;50.766;15.338;2023-08-20T00:30:46;95608.16;;;18.06;80.55
47636;BME280;33364;50.766;15.338;2023-08-20T00:33:12;95604.19;;;18.03;80.65
47636;BME280;33364;50.766;15.338;2023-08-20T00:35:38;95606.25;;;17.98;81.26
47636;BME280;33364;50.766;15.338;2023-08-20T00:38:05;95611.75;;;18.10;80.76
47636;BME280;33364;50.766;15.338;2023-08-20T00:40:31;95614.25;;;18.15;80.56
47636;BME280;33364;50.766;15.338;2023-08-20T00:42:57;95611.28;;;18.17;80.43
47636;BME280;33364;50.766;15.338;2023-08-20T00:45:24;95613.75;;;18.30;79.92
47636;BME280;33364;50.766;15.338;2023-08-20T00:47:50;95613.75;;;18.39;79.86
47636;BME280;33364;50.766;15.338;2023-08-20T00:50:16;95617.69;;;18.33;79.71
47636;BME280;33364;50.766;15.338;2023-08-20T00:52:43;95615.97;;;18.28;80.14
47636;BME280;33364;50.766;15.338;2023-08-20T00:55:10;95621.00;;;18.21;80.21
47636;BME280;33364;50.766;15.338;2023-08-20T00:57:37;95614.25;;;18.24;80.12
47636;BME280;33364;50.766;15.338;2023-08-20T01:00:04;95615.34;;;18.14;80.72
47636;BME280;33364;50.766;15.338;2023-08-20T01:02:35;95616.13;;;18.14;81.02
47636;BME280;33364;50.766;15.338;2023-08-20T01:05:02;95622.00;;;18.08;80.93
47636;BME280;33364;50.766;15.338;2023-08-20T01:07:48;95620.56;;;18.10;80.61
47636;BME280;33364;50.766;15.338;2023-08-20T01:10:26;95620.09;;;18.17;80.20
47636;BME280;33364;50.766;15.338;2023-08-20T01:12:56;95618.50;;;18.16;80.29
47636;BME280;33364;50.766;15.338;2023-08-20T01:15:21;95618.50;;;18.16;80.12
47636;BME280;33364;50.766;15.338;2023-08-20T01:17:48;95616.47;;;18.13;80.73
47636;BME280;33364;50.766;15.338;2023-08-20T01:20:14;95616.00;;;18.11;80.37
47636;BME280;33364;50.766;15.338;2023-08-20T01:30:17;95619.09;;;18.30;79.36
47636;BME280;33364;50.766;15.338;2023-08-20T01:32:44;95622.91;;;18.29;79.62
47636;BME280;33364;50.766;15.338;2023-08-20T01:35:13;95622.09;;;18.37;79.10
47636;BME280;33364;50.766;15.338;2023-08-20T01:37:42;95620.50;;;18.36;79.29
47636;BME280;33364;50.766;15.338;2023-08-20T01:40:08;95626.97;;;18.35;79.15
47636;BME280;33364;50.766;15.338;2023-08-20T01:42:37;95624.44;;;18.30;79.28
47636;BME280;33364;50.766;15.338;2023-08-20T01:45:03;95629.19;;;18.16;79.85
47636;BME280;33364;50.766;15.338;2023-08-20T01:47:30;95616.47;;;18.22;79.55
47636;BME280;33364;50.766;15.338;2023-08-20T01:49:55;95623.22;;;18.28;79.55
47636;BME280;33364;50.766;15.338;2023-08-20T01:52:21;95619.44;;;18.20;80.20
47636;BME280;33364;50.766;15.338;2023-08-20T01:54:48;95613.81;;;18.13;80.39
47636;BME280;33364;50.766;15.338;2023-08-20T01:57:15;95618.66;;;18.11;80.54
47636;BME280;33364;50.766;15.338;2023-08-20T01:59:40;95614.28;;;18.06;80.41
47636;BME280;33364;50.766;15.338;2023-08-20T02:02:07;95609.25;;;18.13;80.05
47636;BME280;33364;50.766;15.338;2023-08-20T02:04:32;95612.34;;;18.24;79.46
47636;BME280;33364;50.766;15.338;2023-08-20T02:06:59;95610.28;;;18.38;78.88
47636;BME280;33364;50.766;15.338;2023-08-20T02:09:24;95614.53;;;18.31;79.05
47636;BME280;33364;50.766;15.338;2023-08-20T02:11:51;95609.19;;;18.31;79.33
47636;BME280;33364;50.766;15.338;2023-08-20T02:14:17;95620.06;;;18.34;79.33
47636;BME280;33364;50.766;15.338;2023-08-20T02:16:43;95617.22;;;18.39;78.80
47636;BME280;33364;50.766;15.338;2023-08-20T02:19:09;95614.50;;;18.48;78.68
47636;BME280;33364;50.766;15.338;2023-08-20T02:21:35;95618.28;;;18.47;78.64
47636;BME280;33364;50.766;15.338;2023-08-20T02:24:01;95620.47;;;18.53;78.52
47636;BME280;33364;50.766;15.338;2023-08-20T02:26:27;95609.16;;;18.56;78.45
47636;BME280;33364;50.766;15.338;2023-08-20T02:28:53;95609.78;;;18.62;78.00
47636;BME280;33364;50.766;15.338;2023-08-20T02:31:19;95618.63;;;18.54;78.25
47636;BME280;33364;50.766;15.338;2023-08-20T02:33:44;95614.06;;;18.54;78.34
47636;BME280;33364;50.766;15.338;2023-08-20T02:36:10;95612.78;;;18.61;78.59
47636;BME280;33364;50.766;15.338;2023-08-20T02:38:36;95602.34;;;18.68;78.03
47636;BME280;33364;50.766;15.338;2023-08-20T02:41:02;95603.94;;;18.69;78.34
47636;BME280;33364;50.766;15.338;2023-08-20T02:43:30;95612.28;;;18.67;78.42
47636;BME280;33364;50.766;15.338;2023-08-20T02:45:56;95605.84;;;18.60;78.65
47636;BME280;33364;50.766;15.338;2023-08-20T02:48:22;95608.97;;;18.62;78.69
47636;BME280;33364;50.766;15.338;2023-08-20T02:50:53;95602.56;;;18.54;79.04
47636;BME280;33364;50.766;15.338;2023-08-20T02:53:20;95603.81;;;18.56;79.45
47636;BME280;33364;50.766;15.338;2023-08-20T02:55:46;95607.44;;;18.61;79.18
47636;BME280;33364;50.766;15.338;2023-08-20T02:58:12;95613.88;;;18.60;79.49
47636;BME280;33364;50.766;15.338;2023-08-20T03:00:38;95610.09;;;18.52;79.95
47636;BME280;33364;50.766;15.338;2023-08-20T03:03:04;95608.84;;;18.58;79.11
47636;BME280;33364;50.766;15.338;2023-08-20T03:05:34;95606.66;;;18.60;78.80
47636;BME280;33364;50.766;15.338;2023-08-20T03:08:00;95614.50;;;18.56;79.07
47636;BME280;33364;50.766;15.338;2023-08-20T03:10:27;95623.16;;;18.53;79.44
47636;BME280;33364;50.766;15.338;2023-08-20T03:12:53;95616.09;;;18.49;79.12
47636;BME280;33364;50.766;15.338;2023-08-20T03:15:19;95618.16;;;18.43;79.62
47636;BME280;33364;50.766;15.338;2023-08-20T03:17:45;95615.47;;;18.35;79.84
47636;BME280;33364;50.766;15.338;2023-08-20T03:20:11;95610.28;;;18.30;79.82
47636;BME280;33364;50.766;15.338;2023-08-20T03:22:37;95611.56;;;18.32;79.76
47636;BME280;33364;50.766;15.338;2023-08-20T03:25:05;95618.94;;;18.35;79.54
47636;BME280;33364;50.766;15.338;2023-08-20T03:27:31;95615.81;;;18.33;79.19
47636;BME280;33364;50.766;15.338;2023-08-20T03:29:57;95620.22;;;18.29;79.55
47636;BME280;33364;50.766;15.338;2023-08-20T03:32:23;95617.56;;;18.29;79.71
47636;BME280;33364;50.766;15.338;2023-08-20T03:34:50;95620.84;;;18.26;79.76
47636;BME280;33364;50.766;15.338;2023-08-20T03:37:16;95624.34;;;18.18;80.32
47636;BME280;33364;50.766;15.338;2023-08-20T03:39:42;95630.78;;;18.17;80.36
47636;BME280;33364;50.766;15.338;2023-08-20T03:42:08;95624.97;;;17.98;81.33
47636;BME280;33364;50.766;15.338;2023-08-20T03:44:34;95621.66;;;18.01;81.39
47636;BME280;33364;50.766;15.338;2023-08-20T03:46:59;95621.66;;;18.01;81.17
47636;BME280;33364;50.766;15.338;2023-08-20T03:49:25;95624.81;;;18.03;81.18
47636;BME280;33364;50.766;15.338;2023-08-20T03:51:51;95636.28;;;18.03;81.16
47636;BME280;33364;50.766;15.338;2023-08-20T03:54:17;95630.94;;;18.03;81.26
47636;BME280;33364;50.766;15.338;2023-08-20T03:56:42;95630.47;;;18.01;81.49
47636;BME280;33364;50.766;15.338;2023-08-20T03:59:09;95622.91;;;18.12;80.82
47636;BME280;33364;50.766;15.338;2023-08-20T04:01:34;95623.22;;;18.19;80.59
47636;BME280;33364;50.766;15.338;2023-08-20T04:04:03;95622.91;;;18.12;80.77
47636;BME280;33364;50.766;15.338;2023-08-20T04:06:29;95623.88;;;18.07;80.91
47636;BME280;33364;50.766;15.338;2023-08-20T04:08:55;95627.34;;;18.08;81.17
47636;BME280;33364;50.766;15.338;2023-08-20T04:11:21;95624.78;;;18.20;80.33
47636;BME280;33364;50.766;15.338;2023-08-20T04:13:47;95626.50;;;18.25;80.10
47636;BME280;33364;50.766;15.338;2023-08-20T04:16:13;95630.59;;;18.31;80.39
47636;BME280;33364;50.766;15.338;2023-08-20T04:18:39;95625.41;;;18.34;80.13
47636;BME280;33364;50.766;15.338;2023-08-20T04:21:05;95633.25;;;18.39;79.88
47636;BME280;33364;50.766;15.338;2023-08-20T04:23:33;95629.81;;;18.39;80.29
47636;BME280;33364;50.766;15.338;2023-08-20T04:25:58;95635.78;;;18.44;79.83
47636;BME280;33364;50.766;15.338;2023-08-20T04:28:24;95633.88;;;18.45;80.07
47636;BME280;33364;50.766;15.338;2023-08-20T04:30:53;95636.69;;;18.48;79.63
47636;BME280;33364;50.766;15.338;2023-08-20T04:33:22;95632.59;;;18.51;80.20
47636;BME280;33364;50.766;15.338;2023-08-20T04:35:49;95637.78;;;18.65;79.16
47636;BME280;33364;50.766;15.338;2023-08-20T04:38:18;95634.59;;;18.80;78.33
47636;BME280;33364;50.766;15.338;2023-08-20T04:40:48;95637.56;;;18.87;78.56
47636;BME280;33364;50.766;15.338;2023-08-20T04:43:15;95631.41;;;18.86;79.22
47636;BME280;33364;50.766;15.338;2023-08-20T04:45:41;95639.41;;;18.95;79.11
47636;BME280;33364;50.766;15.338;2023-08-20T04:48:07;95634.53;;;18.97;79.19
47636;BME280;33364;50.766;15.338;2023-08-20T04:50:33;95639.97;;;19.09;78.62
47636;BME280;33364;50.766;15.338;2023-08-20T04:52:59;95636.00;;;19.15;78.61
47636;BME280;33364;50.766;15.338;2023-08-20T04:55:26;95639.75;;;19.23;78.85
47636;BME280;33364;50.766;15.338;2023-08-20T04:57:52;95642.13;;;19.24;78.90
47636;BME280;33364;50.766;15.338;2023-08-20T05:00:17;95643.47;;;19.30;78.77
47636;BME280;33364;50.766;15.338;2023-08-20T05:02:43;95646.63;;;19.32;79.31
47636;BME280;33364;50.766;15.338;2023-08-20T05:05:10;95643.28;;;19.35;79.65
47636;BME280;33364;50.766;15.338;2023-08-20T05:07:36;95642.66;;;19.38;79.23
47636;BME280;33364;50.766;15.338;2023-08-20T05:10:02;95654.78;;;19.45;79.87
47636;BME280;33364;50.766;15.338;2023-08-20T05:12:28;95651.00;;;19.46;79.89
47636;BME280;33364;50.766;15.338;2023-08-20T05:14:54;95645.78;;;19.40;80.63
47636;BME280;33364;50.766;15.338;2023-08-20T05:17:20;95652.59;;;19.38;80.79
47636;BME280;33364;50.766;15.338;2023-08-20T05:19:46;95649.09;;;19.46;80.67
47636;BME280;33364;50.766;15.338;2023-08-20T05:22:12;95651.59;;;19.51;80.66
47636;BME280;33364;50.766;15.338;2023-08-20T05:24:38;95642.59;;;19.56;80.18
47636;BME280;33364;50.766;15.338;2023-08-20T05:27:08;95650.09;;;19.62;80.21
47636;BME280;33364;50.766;15.338;2023-08-20T05:29:36;95649.78;;;19.64;81.21
47636;BME280;33364;50.766;15.338;2023-08-20T05:32:02;95644.88;;;19.66;80.62
47636;BME280;33364;50.766;15.338;2023-08-20T05:34:28;95650.06;;;19.71;80.58
47636;BME280;33364;50.766;15.338;2023-08-20T05:36:55;95653.38;;;19.68;80.31
47636;BME280;33364;50.766;15.338;2023-08-20T05:39:20;95652.25;;;19.69;80.37
47636;BME280;33364;50.766;15.338;2023-08-20T05:41:46;95654.88;;;19.77;80.08
47636;BME280;33364;50.766;15.338;2023-08-20T05:44:12;95661.97;;;19.82;79.97
47636;BME280;33364;50.766;15.338;2023-08-20T05:46:38;95660.63;;;19.88;79.52
47636;BME280;33364;50.766;15.338;2023-08-20T05:49:03;95656.41;;;19.87;79.74
47636;BME280;33364;50.766;15.338;2023-08-20T05:51:29;95658.28;;;19.87;80.32
47636;BME280;33364;50.766;15.338;2023-08-20T05:53:55;95655.75;;;19.90;79.12
47636;BME280;33364;50.766;15.338;2023-08-20T05:56:21;95661.22;;;19.94;79.62
47636;BME280;33364;50.766;15.338;2023-08-20T05:58:46;95653.13;;;20.02;79.00
47636;BME280;33364;50.766;15.338;2023-08-20T06:01:12;95658.28;;;20.07;78.50
47636;BME280;33364;50.766;15.338;2023-08-20T06:03:38;95659.47;;;20.18;78.20
47636;BME280;33364;50.766;15.338;2023-08-20T06:06:04;95655.00;;;20.22;78.38
47636;BME280;33364;50.766;15.338;2023-08-20T06:08:29;95650.69;;;20.30;78.34
47636;BME280;33364;50.766;15.338;2023-08-20T06:10:55;95661.88;;;20.32;79.40
47636;BME280;33364;50.766;15.338;2023-08-20T06:13:21;95659.06;;;20.29;78.73
47636;BME280;33364;50.766;15.338;2023-08-20T06:15:47;95655.25;;;20.30;79.57
47636;BME280;33364;50.766;15.338;2023-08-20T06:18:12;95655.41;;;20.33;78.99
47636;BME280;33364;50.766;15.338;2023-08-20T06:20:38;95653.78;;;20.41;78.59
47636;BME280;33364;50.766;15.338;2023-08-20T06:23:04;95652.63;;;20.42;79.03
47636;BME280;33364;50.766;15.338;2023-08-20T06:25:30;95659.69;;;20.46;79.47
47636;BME280;33364;50.766;15.338;2023-08-20T06:27:56;95665.06;;;20.46;79.26
47636;BME280;33364;50.766;15.338;2023-08-20T06:30:22;95665.09;;;20.58;79.58
47636;BME280;33364;50.766;15.338;2023-08-20T06:32:47;95665.25;;;20.62;80.79
47636;BME280;33364;50.766;15.338;2023-08-20T06:35:13;95663.91;;;20.68;80.41
47636;BME280;33364;50.766;15.338;2023-08-20T06:37:40;95672.44;;;20.82;78.94
47636;BME280;33364;50.766;15.338;2023-08-20T06:40:08;95666.28;;;20.94;79.70
47636;BME280;33364;50.766;15.338;2023-08-20T06:42:34;95664.16;;;20.99;78.13
47636;BME280;33364;50.766;15.338;2023-08-20T06:45:00;95669.56;;;21.12;79.46
47636;BME280;33364;50.766;15.338;2023-08-20T06:47:25;95671.72;;;21.18;78.60
47636;BME280;33364;50.766;15.338;2023-08-20T06:49:52;95664.91;;;21.33;77.90
47636;BME280;33364;50.766;15.338;2023-08-20T06:52:17;95660.09;;;21.38;77.66
47636;BME280;33364;50.766;15.338;2023-08-20T06:54:44;95660.75;;;21.47;78.73
47636;BME280;33364;50.766;15.338;2023-08-20T06:57:11;95664.44;;;21.55;78.12
47636;BME280;33364;50.766;15.338;2023-08-20T06:59:37;95667.69;;;21.61;77.60
47636;BME280;33364;50.766;15.338;2023-08-20T07:02:03;95672.94;;;21.69;77.41
47636;BME280;33364;50.766;15.338;2023-08-20T07:04:29;95677.66;;;21.72;78.39
47636;BME280;33364;50.766;15.338;2023-08-20T07:06:55;95685.38;;;21.74;79.55
47636;BME280;33364;50.766;15.338;2023-08-20T07:09:21;95681.22;;;21.76;78.20
47636;BME280;33364;50.766;15.338;2023-08-20T07:11:47;95681.56;;;21.75;78.36
47636;BME280;33364;50.766;15.338;2023-08-20T07:14:14;95689.06;;;21.69;78.17
47636;BME280;33364;50.766;15.338;2023-08-20T07:16:40;95687.94;;;21.70;78.67
47636;BME280;33364;50.766;15.338;2023-08-20T07:19:06;95694.91;;;21.71;78.72
47636;BME280;33364;50.766;15.338;2023-08-20T07:21:31;95685.50;;;21.77;79.25
47636;BME280;33364;50.766;15.338;2023-08-20T07:23:57;95689.06;;;21.81;79.22
47636;BME280;33364;50.766;15.338;2023-08-20T07:26:23;95698.81;;;21.86;79.29
47636;BME280;33364;50.766;15.338;2023-08-20T07:28:49;95697.34;;;21.88;77.75
47636;BME280;33364;50.766;15.338;2023-08-20T07:31:24;95695.34;;;21.98;77.83
47636;BME280;33364;50.766;15.338;2023-08-20T07:33:51;95699.38;;;22.04;78.71
47636;BME280;33364;50.766;15.338;2023-08-20T07:36:19;95714.16;;;22.10;79.61
47636;BME280;33364;50.766;15.338;2023-08-20T07:38:47;95715.03;;;22.14;79.49
47636;BME280;33364;50.766;15.338;2023-08-20T07:41:13;95722.88;;;22.19;79.06
47636;BME280;33364;50.766;15.338;2023-08-20T07:43:40;95723.75;;;22.23;79.37
47636;BME280;33364;50.766;15.338;2023-08-20T07:46:07;95721.50;;;22.25;80.22
47636;BME280;33364;50.766;15.338;2023-08-20T07:48:34;95713.38;;;22.37;78.92
47636;BME280;33364;50.766;15.338;2023-08-20T07:51:01;95713.78;;;22.51;78.99
47636;BME280;33364;50.766;15.338;2023-08-20T07:53:28;95715.28;;;22.64;78.07
47636;BME280;33364;50.766;15.338;2023-08-20T07:55:55;95719.28;;;22.83;78.56
47636;BME280;33364;50.766;15.338;2023-08-20T07:58:21;95721.59;;;23.12;78.03
47636;BME280;33364;50.766;15.338;2023-08-20T08:00:47;95715.16;;;23.32;77.53
47636;BME280;33364;50.766;15.338;2023-08-20T08:03:13;95713.22;;;23.80;76.72
47636;BME280;33364;50.766;15.338;2023-08-20T08:05:50;95713.63;;;24.32;72.35
47636;BME280;33364;50.766;15.338;2023-08-20T08:08:17;95708.25;;;24.90;69.48
47636;BME280;33364;50.766;15.338;2023-08-20T08:10:43;95703.75;;;25.43;68.36
47636;BME280;33364;50.766;15.338;2023-08-20T08:13:14;95702.63;;;25.93;66.86
47636;BME280;33364;50.766;15.338;2023-08-20T08:15:40;95705.16;;;26.39;63.36
47636;BME280;33364;50.766;15.338;2023-08-20T08:18:07;95711.84;;;26.78;62.01
47636;BME280;33364;50.766;15.338;2023-08-20T08:20:32;95707.56;;;27.11;60.45
47636;BME280;33364;50.766;15.338;2023-08-20T08:22:59;95704.38;;;27.46;58.65
47636;BME280;33364;50.766;15.338;2023-08-20T08:25:25;95706.84;;;27.58;58.01
47636;BME280;33364;50.766;15.338;2023-08-20T08:27:51;95707.78;;;27.83;51.38
47636;BME280;33364;50.766;15.338;2023-08-20T08:30:17;95713.25;;;27.87;46.47
47636;BME280;33364;50.766;15.338;2023-08-20T08:32:43;95711.84;;;28.07;52.02
47636;BME280;33364;50.766;15.338;2023-08-20T08:35:09;95712.63;;;28.11;52.94
47636;BME280;33364;50.766;15.338;2023-08-20T08:37:35;95716.44;;;27.96;50.79
47636;BME280;33364;50.766;15.338;2023-08-20T08:40:01;95715.28;;;27.97;49.18
47636;BME280;33364;50.766;15.338;2023-08-20T08:42:29;95715.56;;;27.81;50.65
47636;BME280;33364;50.766;15.338;2023-08-20T08:44:55;95716.97;;;27.64;49.84
47636;BME280;33364;50.766;15.338;2023-08-20T08:47:23;95724.69;;;27.59;49.95
47636;BME280;33364;50.766;15.338;2023-08-20T08:49:49;95715.09;;;27.28;51.10
47636;BME280;33364;50.766;15.338;2023-08-20T08:52:16;95717.50;;;27.40;52.06
47636;BME280;33364;50.766;15.338;2023-08-20T08:54:43;95716.50;;;27.55;52.19
47636;BME280;33364;50.766;15.338;2023-08-20T08:57:10;95715.94;;;27.80;51.78
47636;BME280;33364;50.766;15.338;2023-08-20T08:59:36;95719.69;;;28.19;50.57
47636;BME280;33364;50.766;15.338;2023-08-20T09:02:07;95715.44;;;28.25;49.21
47636;BME280;33364;50.766;15.338;2023-08-20T09:04:34;95716.38;;;28.54;49.40
47636;BME280;33364;50.766;15.338;2023-08-20T09:07:00;95712.50;;;28.59;50.35
47636;BME280;33364;50.766;15.338;2023-08-20T09:09:29;95719.66;;;29.02;47.82
47636;BME280;33364;50.766;15.338;2023-08-20T09:11:55;95713.41;;;28.84;48.09
47636;BME280;33364;50.766;15.338;2023-08-20T09:14:30;95714.66;;;29.18;46.79
47636;BME280;33364;50.766;15.338;2023-08-20T09:16:58;95711.56;;;29.52;46.20
47636;BME280;33364;50.766;15.338;2023-08-20T09:19:28;95713.91;;;29.85;44.91
47636;BME280;33364;50.766;15.338;2023-08-20T09:21:54;95713.91;;;30.06;45.50
47636;BME280;33364;50.766;15.338;2023-08-20T09:24:44;95718.56;;;30.06;46.06
47636;BME280;33364;50.766;15.338;2023-08-20T09:27:12;95714.69;;;30.07;43.06
47636;BME280;33364;50.766;15.338;2023-08-20T09:32:18;95720.00;;;30.63;43.03
47636;BME280;33364;50.766;15.338;2023-08-20T09:34:45;95720.38;;;30.62;42.19
47636;BME280;33364;50.766;15.338;2023-08-20T09:37:15;95728.19;;;30.60;43.60
47636;BME280;33364;50.766;15.338;2023-08-20T09:39:41;95718.78;;;30.75;42.37
47636;BME280;33364;50.766;15.338;2023-08-20T09:42:09;95719.91;;;30.85;41.60
47636;BME280;33364;50.766;15.338;2023-08-20T09:44:40;95724.25;;;30.68;44.25
47636;BME280;33364;50.766;15.338;2023-08-20T09:47:09;95720.91;;;30.07;43.63
47636;BME280;33364;50.766;15.338;2023-08-20T09:49:42;95730.25;;;29.71;44.32
47636;BME280;33364;50.766;15.338;2023-08-20T09:52:10;95723.25;;;29.52;47.46
47636;BME280;33364;50.766;15.338;2023-08-20T09:57:39;95726.38;;;29.58;46.66
47636;BME280;33364;50.766;15.338;2023-08-20T10:00:07;95719.38;;;29.50;44.98
47636;BME280;33364;50.766;15.338;2023-08-20T10:02:37;95727.13;;;29.41;46.95
47636;BME280;33364;50.766;15.338;2023-08-20T10:05:05;95725.53;;;29.25;46.42
47636;BME280;33364;50.766;15.338;2023-08-20T10:07:32;95728.28;;;29.32;46.88
47636;BME280;33364;50.766;15.338;2023-08-20T10:10:03;95724.69;;;28.93;48.96
47636;BME280;33364;50.766;15.338;2023-08-20T10:12:30;95733.22;;;28.81;49.59
47636;BME280;33364;50.766;15.338;2023-08-20T10:14:57;95725.06;;;28.88;49.36
47636;BME280;33364;50.766;15.338;2023-08-20T10:17:23;95719.19;;;28.75;51.74
47636;BME280;33364;50.766;15.338;2023-08-20T10:19:52;95722.41;;;29.20;51.37
47636;BME280;33364;50.766;15.338;2023-08-20T10:22:21;95721.97;;;29.00;48.49
47636;BME280;33364;50.766;15.338;2023-08-20T10:24:52;95728.94;;;28.83;48.85
47636;BME280;33364;50.766;15.338;2023-08-20T10:27:30;95720.81;;;28.87;48.33
47636;BME280;33364;50.766;15.338;2023-08-20T10:29:58;95733.66;;;29.01;50.04
47636;BME280;33364;50.766;15.338;2023-08-20T10:32:44;95725.56;;;29.47;47.06
47636;BME280;33364;50.766;15.338;2023-08-20T10:35:18;95724.44;;;29.55;47.17
47636;BME280;33364;50.766;15.338;2023-08-20T10:38:07;95727.50;;;30.24;44.68
47636;BME280;33364;50.766;15.338;2023-08-20T10:40:47;95722.34;;;30.58;44.33
47636;BME280;33364;50.766;15.338;2023-08-20T10:48:39;95714.41;;;30.88;46.93
47636;BME280;33364;50.766;15.338;2023-08-20T10:51:15;95719.34;;;31.15;43.91
47636;BME280;33364;50.766;15.338;2023-08-20T10:56:23;95709.94;;;30.50;44.79
47636;BME280;33364;50.766;15.338;2023-08-20T10:58:49;95710.47;;;31.03;42.50
47636;BME280;33364;50.766;15.338;2023-08-20T11:01:17;95715.53;;;31.09;42.46
47636;BME280;33364;50.766;15.338;2023-08-20T11:03:48;95712.03;;;30.94;42.70
47636;BME280;33364;50.766;15.338;2023-08-20T11:06:14;95705.56;;;30.63;43.27
47636;BME280;33364;50.766;15.338;2023-08-20T11:08:41;95716.19;;;30.26;44.53
47636;BME280;33364;50.766;15.338;2023-08-20T11:11:07;95713.50;;;30.11;47.12
47636;BME280;33364;50.766;15.338;2023-08-20T11:13:34;95713.94;;;29.92;50.53
47636;BME280;33364;50.766;15.338;2023-08-20T11:16:02;95712.34;;;29.56;53.41
47636;BME280;33364;50.766;15.338;2023-08-20T11:18:30;95711.53;;;29.16;56.00
47636;BME280;33364;50.766;15.338;2023-08-20T11:20:56;95728.56;;;28.88;58.95
47636;BME280;33364;50.766;15.338;2023-08-20T11:23:22;95728.81;;;28.55;62.65
47636;BME280;33364;50.766;15.338;2023-08-20T11:25:48;95731.97;;;28.02;64.22
47636;BME280;33364;50.766;15.338;2023-08-20T11:28:14;95722.09;;;27.33;63.89
47636;BME280;33364;50.766;15.338;2023-08-20T11:30:40;95722.59;;;27.01;65.62
47636;BME280;33364;50.766;15.338;2023-08-20T11:33:06;95721.69;;;26.27;68.93
47636;BME280;33364;50.766;15.338;2023-08-20T11:35:32;95724.06;;;25.79;69.84
47636;BME280;33364;50.766;15.338;2023-08-20T11:37:59;95730.44;;;25.22;73.93
47636;BME280;33364;50.766;15.338;2023-08-20T11:40:26;95735.38;;;25.16;71.79
47636;BME280;33364;50.766;15.338;2023-08-20T11:42:52;95733.53;;;25.01;72.44
47636;BME280;33364;50.766;15.338;2023-08-20T11:45:18;95734.91;;;24.92;73.25
47636;BME280;33364;50.766;15.338;2023-08-20T11:47:44;95744.56;;;24.93;74.38
47636;BME280;33364;50.766;15.338;2023-08-20T11:50:09;95745.06;;;24.98;74.58
47636;BME280;33364;50.766;15.338;2023-08-20T11:52:36;95767.22;;;24.50;76.62
47636;BME280;33364;50.766;15.338;2023-08-20T11:55:05;95773.53;;;24.38;76.20
47636;BME280;33364;50.766;15.338;2023-08-20T11:57:32;95768.19;;;24.22;74.16
47636;BME280;33364;50.766;15.338;2023-08-20T12:00:05;95777.22;;;24.14;74.40
47636;BME280;33364;50.766;15.338;2023-08-20T12:02:41;95787.63;;;23.96;74.23
47636;BME280;33364;50.766;15.338;2023-08-20T12:05:09;95783.81;;;23.50;74.71
47636;BME280;33364;50.766;15.338;2023-08-20T12:07:35;95785.16;;;23.29;74.47
47636;BME280;33364;50.766;15.338;2023-08-20T12:10:19;95778.09;;;23.08;74.03
47636;BME280;33364;50.766;15.338;2023-08-20T12:12:48;95774.53;;;23.20;75.48
47636;BME280;33364;50.766;15.338;2023-08-20T12:15:13;95784.78;;;23.14;75.44
47636;BME280;33364;50.766;15.338;2023-08-20T12:17:39;95767.19;;;22.37;76.01
47636;BME280;33364;50.766;15.338;2023-08-20T12:20:05;95753.69;;;22.61;75.95
47636;BME280;33364;50.766;15.338;2023-08-20T12:22:38;95755.69;;;22.64;75.68
47636;BME280;33364;50.766;15.338;2023-08-20T12:25:05;95755.28;;;22.50;76.49
47636;BME280;33364;50.766;15.338;2023-08-20T12:27:33;95752.47;;;22.19;77.32
47636;BME280;33364;50.766;15.338;2023-08-20T12:29:59;95774.41;;;22.21;77.40
47636;BME280;33364;50.766;15.338;2023-08-20T12:32:25;95769.94;;;22.25;76.85
47636;BME280;33364;50.766;15.338;2023-08-20T12:34:51;95770.50;;;22.58;76.50
47636;BME280;33364;50.766;15.338;2023-08-20T12:37:16;95768.00;;;22.78;77.11
47636;BME280;33364;50.766;15.338;2023-08-20T12:39:42;95769.59;;;22.66;78.18
47636;BME280;33364;50.766;15.338;2023-08-20T12:42:08;95766.44;;;22.64;76.41
47636;BME280;33364;50.766;15.338;2023-08-20T12:44:34;95770.09;;;22.56;76.63
47636;BME280;33364;50.766;15.338;2023-08-20T12:47:00;95774.28;;;22.69;76.07
47636;BME280;33364;50.766;15.338;2023-08-20T12:49:25;95768.59;;;22.99;74.50
47636;BME280;33364;50.766;15.338;2023-08-20T12:51:51;95769.88;;;22.89;75.38
47636;BME280;33364;50.766;15.338;2023-08-20T12:54:17;95765.41;;;23.09;74.93
47636;BME280;33364;50.766;15.338;2023-08-20T12:56:43;95772.47;;;23.45;73.46
47636;BME280;33364;50.766;15.338;2023-08-20T12:59:09;95769.53;;;23.66;73.62
47636;BME280;33364;50.766;15.338;2023-08-20T13:01:35;95763.50;;;24.04;74.48
47636;BME280;33364;50.766;15.338;2023-08-20T13:04:01;95765.94;;;24.44;72.67
47636;BME280;33364;50.766;15.338;2023-08-20T13:06:29;95760.06;;;24.57;71.68
47636;BME280;33364;50.766;15.338;2023-08-20T13:08:55;95761.81;;;24.50;69.76
47636;BME280;33364;50.766;15.338;2023-08-20T13:11:21;95752.75;;;24.58;70.65